sensor_id;sensor_type;location;lat;lon;timestamp;P1;durP1;ratioP1;P2;durP2;ratioP2
6505;SDS011;3286;49.858;8.768;2024-01-30T00:00:26;11.30;;;6.60;;
6505;SDS011;3286;49.858;8.768;2024-01-30T00:02:52;13.50;;;7.10;;
6505;SDS011;3286;49.858;8.768;2024-01-30T00:05:19;12.53;;;6.90;;
6505;SDS011;3286;49.858;8.768;2024-01-30T00:07:47;13.80;;;6.93;;
6505;SDS011;3286;49.858;8.768;2024-01-30T00:10:13;11.17;;;6.37;;
6505;SDS011;3286;49.858;8.768;2024-01-30T00:12:40;13.23;;;5.97;;
6505;SDS011;3286;49.858;8.768;2024-01-30T00:15:07;10.53;;;4.97;;
6505;SDS011;3286;49.858;8.768;2024-01-30T00:17:34;8.10;;;5.03;;
6505;SDS011;3286;49.858;8.768;2024-01-30T00:20:02;10.20;;;5.43;;
6505;SDS011;3286;49.858;8.768;2024-01-30T00:22:30;12.27;;;6.30;;
6505;SDS011;3286;49.858;8.768;2024-01-30T00:24:58;9.80;;;4.93;;
6505;SDS011;3286;49.858;8.768;2024-01-30T00:27:25;7.07;;;4.97;;
6505;SDS011;3286;49.858;8.768;2024-01-30T00:29:52;8.53;;;5.00;;
6505;SDS011;3286;49.858;8.768;2024-01-30T00:32:19;14.57;;;6.43;;
6505;SDS011;3286;49.858;8.768;2024-01-30T00:34:45;12.00;;;6.80;;
6505;SDS011;3286;49.858;8.768;2024-01-30T00:37:12;11.50;;;6.90;;
6505;SDS011;3286;49.858;8.768;2024-01-30T00:39:39;10.30;;;6.40;;
6505;SDS011;3286;49.858;8.768;2024-01-30T00:42:07;10.70;;;6.03;;
6505;SDS011;3286;49.858;8.768;2024-01-30T00:44:34;9.50;;;5.90;;
6505;SDS011;3286;49.858;8.768;2024-01-30T00:47:02;7.53;;;5.47;;
6505;SDS011;3286;49.858;8.768;2024-01-30T00:49:29;7.90;;;4.37;;
6505;SDS011;3286;49.858;8.768;2024-01-30T00:51:55;6.90;;;4.90;;
6505;SDS011;3286;49.858;8.768;2024-01-30T00:54:22;14.73;;;5.77;;
6505;SDS011;3286;49.858;8.768;2024-01-30T00:56:49;9.47;;;5.43;;
6505;SDS011;3286;49.858;8.768;2024-01-30T00:59:17;8.43;;;5.37;;
6505;SDS011;3286;49.858;8.768;2024-01-30T01:01:43;10.73;;;5.53;;
6505;SDS011;3286;49.858;8.768;2024-01-30T01:04:10;9.33;;;5.80;;
6505;SDS011;3286;49.858;8.768;2024-01-30T01:06:36;7.73;;;5.13;;
6505;SDS011;3286;49.858;8.768;2024-01-30T01:09:03;9.73;;;4.37;;
6505;SDS011;3286;49.858;8.768;2024-01-30T01:11:30;10.07;;;4.20;;
6505;SDS011;3286;49.858;8.768;2024-01-30T01:13:56;8.50;;;5.03;;
6505;SDS011;3286;49.858;8.768;2024-01-30T01:16:24;5.77;;;4.20;;
6505;SDS011;3286;49.858;8.768;2024-01-30T01:18:51;6.57;;;4.70;;
6505;SDS011;3286;49.858;8.768;2024-01-30T01:21:17;5.20;;;4.23;;
6505;SDS011;3286;49.858;8.768;2024-01-30T01:23:44;7.30;;;4.73;;
6505;SDS011;3286;49.858;8.768;2024-01-30T01:26:11;6.00;;;4.33;;
6505;SDS011;3286;49.858;8.768;2024-01-30T01:28:39;6.17;;;4.13;;
6505;SDS011;3286;49.858;8.768;2024-01-30T01:31:05;7.03;;;3.77;;
6505;SDS011;3286;49.858;8.768;2024-01-30T01:33:33;5.63;;;4.00;;
6505;SDS011;3286;49.858;8.768;2024-01-30T01:36:02;9.73;;;4.60;;
6505;SDS011;3286;49.858;8.768;2024-01-30T01:38:28;8.43;;;4.73;;
6505;SDS011;3286;49.858;8.768;2024-01-30T01:40:55;6.87;;;4.60;;
6505;SDS011;3286;49.858;8.768;2024-01-30T01:43:22;9.93;;;5.27;;
6505;SDS011;3286;49.858;8.768;2024-01-30T01:45:48;8.90;;;4.47;;
6505;SDS011;3286;49.858;8.768;2024-01-30T01:48:15;8.20;;;5.70;;
6505;SDS011;3286;49.858;8.768;2024-01-30T01:50:43;10.73;;;6.07;;
6505;SDS011;3286;49.858;8.768;2024-01-30T01:53:10;6.47;;;4.97;;
6505;SDS011;3286;49.858;8.768;2024-01-30T01:55:38;7.20;;;4.70;;
6505;SDS011;3286;49.858;8.768;2024-01-30T01:58:05;9.43;;;5.57;;
6505;SDS011;3286;49.858;8.768;2024-01-30T02:00:31;7.03;;;5.20;;
6505;SDS011;3286;49.858;8.768;2024-01-30T02:02:59;7.13;;;4.30;;
6505;SDS011;3286;49.858;8.768;2024-01-30T02:05:26;7.10;;;4.40;;
6505;SDS011;3286;49.858;8.768;2024-01-30T02:07:55;6.37;;;4.13;;
6505;SDS011;3286;49.858;8.768;2024-01-30T02:10:22;6.40;;;4.20;;
6505;SDS011;3286;49.858;8.768;2024-01-30T02:12:49;7.70;;;4.70;;
6505;SDS011;3286;49.858;8.768;2024-01-30T02:15:15;7.10;;;4.47;;
6505;SDS011;3286;49.858;8.768;2024-01-30T02:17:43;7.73;;;4.33;;
6505;SDS011;3286;49.858;8.768;2024-01-30T02:20:10;6.77;;;4.53;;
6505;SDS011;3286;49.858;8.768;2024-01-30T02:22:39;11.30;;;6.30;;
6505;SDS011;3286;49.858;8.768;2024-01-30T02:25:07;10.13;;;5.30;;
6505;SDS011;3286;49.858;8.768;2024-01-30T02:27:34;8.50;;;5.00;;
6505;SDS011;3286;49.858;8.768;2024-01-30T02:30:01;8.30;;;5.30;;
6505;SDS011;3286;49.858;8.768;2024-01-30T02:32:27;11.40;;;5.23;;
6505;SDS011;3286;49.858;8.768;2024-01-30T02:34:54;8.30;;;5.20;;
6505;SDS011;3286;49.858;8.768;2024-01-30T02:37:21;6.57;;;4.27;;
6505;SDS011;3286;49.858;8.768;2024-01-30T02:39:49;9.07;;;5.17;;
6505;SDS011;3286;49.858;8.768;2024-01-30T02:42:15;11.63;;;4.93;;
6505;SDS011;3286;49.858;8.768;2024-01-30T02:44:42;7.60;;;4.67;;
6505;SDS011;3286;49.858;8.768;2024-01-30T02:47:09;7.27;;;4.13;;
6505;SDS011;3286;49.858;8.768;2024-01-30T02:49:35;5.80;;;4.00;;
6505;SDS011;3286;49.858;8.768;2024-01-30T02:52:02;6.47;;;4.13;;
6505;SDS011;3286;49.858;8.768;2024-01-30T02:54:29;6.80;;;4.50;;
6505;SDS011;3286;49.858;8.768;2024-01-30T02:56:58;7.87;;;4.40;;
6505;SDS011;3286;49.858;8.768;2024-01-30T02:59:24;7.57;;;4.17;;
6505;SDS011;3286;49.858;8.768;2024-01-30T03:01:51;6.30;;;4.40;;
6505;SDS011;3286;49.858;8.768;2024-01-30T03:04:17;9.00;;;4.87;;
6505;SDS011;3286;49.858;8.768;2024-01-30T03:06:44;6.33;;;4.30;;
6505;SDS011;3286;49.858;8.768;2024-01-30T03:09:13;11.10;;;5.20;;
6505;SDS011;3286;49.858;8.768;2024-01-30T03:11:39;7.40;;;4.57;;
6505;SDS011;3286;49.858;8.768;2024-01-30T03:14:07;8.43;;;4.33;;
6505;SDS011;3286;49.858;8.768;2024-01-30T03:16:36;7.37;;;4.33;;
6505;SDS011;3286;49.858;8.768;2024-01-30T03:19:02;9.03;;;4.27;;
6505;SDS011;3286;49.858;8.768;2024-01-30T03:21:30;5.93;;;4.23;;
6505;SDS011;3286;49.858;8.768;2024-01-30T03:23:56;4.93;;;3.90;;
6505;SDS011;3286;49.858;8.768;2024-01-30T03:26:24;5.43;;;4.00;;
6505;SDS011;3286;49.858;8.768;2024-01-30T03:28:51;6.50;;;3.67;;
6505;SDS011;3286;49.858;8.768;2024-01-30T03:31:19;6.40;;;3.50;;
6505;SDS011;3286;49.858;8.768;2024-01-30T03:33:45;6.13;;;3.93;;
6505;SDS011;3286;49.858;8.768;2024-01-30T03:36:12;5.53;;;3.70;;
6505;SDS011;3286;49.858;8.768;2024-01-30T03:38:38;7.70;;;3.83;;
6505;SDS011;3286;49.858;8.768;2024-01-30T03:41:07;6.43;;;3.83;;
6505;SDS011;3286;49.858;8.768;2024-01-30T03:43:34;6.93;;;3.77;;
6505;SDS011;3286;49.858;8.768;2024-01-30T03:46:01;6.17;;;3.80;;
6505;SDS011;3286;49.858;8.768;2024-01-30T03:48:29;6.07;;;3.90;;
6505;SDS011;3286;49.858;8.768;2024-01-30T03:50:56;5.93;;;4.33;;
6505;SDS011;3286;49.858;8.768;2024-01-30T03:53:23;6.80;;;4.70;;
6505;SDS011;3286;49.858;8.768;2024-01-30T03:55:50;7.07;;;4.30;;
6505;SDS011;3286;49.858;8.768;2024-01-30T03:58:17;7.43;;;4.43;;
6505;SDS011;3286;49.858;8.768;2024-01-30T04:00:44;7.93;;;4.23;;
6505;SDS011;3286;49.858;8.768;2024-01-30T04:03:10;6.97;;;4.43;;
6505;SDS011;3286;49.858;8.768;2024-01-30T04:05:38;8.27;;;4.70;;
6505;SDS011;3286;49.858;8.768;2024-01-30T04:08:05;5.93;;;4.37;;
6505;SDS011;3286;49.858;8.768;2024-01-30T04:10:32;5.50;;;3.93;;
6505;SDS011;3286;49.858;8.768;2024-01-30T04:12:59;9.67;;;5.03;;
6505;SDS011;3286;49.858;8.768;2024-01-30T04:15:26;8.03;;;4.40;;
6505;SDS011;3286;49.858;8.768;2024-01-30T04:17:56;7.13;;;4.30;;
6505;SDS011;3286;49.858;8.768;2024-01-30T04:20:23;9.73;;;4.07;;
6505;SDS011;3286;49.858;8.768;2024-01-30T04:22:52;8.20;;;4.10;;
6505;SDS011;3286;49.858;8.768;2024-01-30T04:25:19;7.10;;;4.60;;
6505;SDS011;3286;49.858;8.768;2024-01-30T04:27:45;7.30;;;4.43;;
6505;SDS011;3286;49.858;8.768;2024-01-30T04:30:12;8.30;;;5.20;;
6505;SDS011;3286;49.858;8.768;2024-01-30T04:32:39;7.63;;;5.23;;
6505;SDS011;3286;49.858;8.768;2024-01-30T04:35:06;7.70;;;4.13;;
6505;SDS011;3286;49.858;8.768;2024-01-30T04:37:33;6.43;;;4.10;;
6505;SDS011;3286;49.858;8.768;2024-01-30T04:40:01;7.57;;;4.03;;
6505;SDS011;3286;49.858;8.768;2024-01-30T04:42:28;8.60;;;4.80;;
6505;SDS011;3286;49.858;8.768;2024-01-30T04:44:54;7.03;;;4.70;;
6505;SDS011;3286;49.858;8.768;2024-01-30T04:47:21;5.17;;;3.60;;
6505;SDS011;3286;49.858;8.768;2024-01-30T04:49:48;7.87;;;4.70;;
6505;SDS011;3286;49.858;8.768;2024-01-30T04:52:15;9.53;;;5.13;;
6505;SDS011;3286;49.858;8.768;2024-01-30T04:54:42;9.10;;;5.17;;
6505;SDS011;3286;49.858;8.768;2024-01-30T04:57:10;7.40;;;4.63;;
6505;SDS011;3286;49.858;8.768;2024-01-30T04:59:37;7.63;;;4.90;;
6505;SDS011;3286;49.858;8.768;2024-01-30T05:02:04;6.93;;;4.30;;
6505;SDS011;3286;49.858;8.768;2024-01-30T05:04:31;7.70;;;4.60;;
6505;SDS011;3286;49.858;8.768;2024-01-30T05:06:57;6.83;;;4.30;;
6505;SDS011;3286;49.858;8.768;2024-01-30T05:09:24;7.07;;;4.30;;
6505;SDS011;3286;49.858;8.768;2024-01-30T05:11:51;8.43;;;4.77;;
6505;SDS011;3286;49.858;8.768;2024-01-30T05:14:19;8.80;;;5.30;;
6505;SDS011;3286;49.858;8.768;2024-01-30T05:16:45;6.23;;;4.67;;
6505;SDS011;3286;49.858;8.768;2024-01-30T05:19:13;8.30;;;4.73;;
6505;SDS011;3286;49.858;8.768;2024-01-30T05:21:40;7.37;;;4.70;;
6505;SDS011;3286;49.858;8.768;2024-01-30T05:24:07;6.50;;;4.77;;
6505;SDS011;3286;49.858;8.768;2024-01-30T05:26:35;8.97;;;5.03;;
6505;SDS011;3286;49.858;8.768;2024-01-30T05:29:02;6.40;;;4.43;;
6505;SDS011;3286;49.858;8.768;2024-01-30T05:31:30;6.60;;;4.63;;
6505;SDS011;3286;49.858;8.768;2024-01-30T05:33:56;9.13;;;4.87;;
6505;SDS011;3286;49.858;8.768;2024-01-30T05:36:23;8.87;;;4.60;;
6505;SDS011;3286;49.858;8.768;2024-01-30T05:38:50;6.27;;;4.60;;
6505;SDS011;3286;49.858;8.768;2024-01-30T05:41:16;8.90;;;4.73;;
6505;SDS011;3286;49.858;8.768;2024-01-30T05:43:43;8.30;;;4.57;;
6505;SDS011;3286;49.858;8.768;2024-01-30T05:46:10;7.13;;;4.97;;
6505;SDS011;3286;49.858;8.768;2024-01-30T05:48:38;7.93;;;4.93;;
6505;SDS011;3286;49.858;8.768;2024-01-30T05:51:06;9.87;;;4.93;;
6505;SDS011;3286;49.858;8.768;2024-01-30T05:53:33;7.50;;;4.80;;
6505;SDS011;3286;49.858;8.768;2024-01-30T05:56:01;9.50;;;5.37;;
6505;SDS011;3286;49.858;8.768;2024-01-30T05:58:27;7.40;;;4.93;;
6505;SDS011;3286;49.858;8.768;2024-01-30T06:00:54;9.37;;;5.37;;
6505;SDS011;3286;49.858;8.768;2024-01-30T06:03:21;7.33;;;4.93;;
6505;SDS011;3286;49.858;8.768;2024-01-30T06:05:49;6.90;;;4.87;;
6505;SDS011;3286;49.858;8.768;2024-01-30T06:08:15;7.93;;;4.97;;
6505;SDS011;3286;49.858;8.768;2024-01-30T06:10:42;9.73;;;5.10;;
6505;SDS011;3286;49.858;8.768;2024-01-30T06:13:09;6.07;;;4.37;;
6505;SDS011;3286;49.858;8.768;2024-01-30T06:15:35;9.63;;;5.40;;
6505;SDS011;3286;49.858;8.768;2024-01-30T06:18:02;8.33;;;5.00;;
6505;SDS011;3286;49.858;8.768;2024-01-30T06:20:29;7.07;;;5.07;;
6505;SDS011;3286;49.858;8.768;2024-01-30T06:22:57;21.27;;;7.57;;
6505;SDS011;3286;49.858;8.768;2024-01-30T06:25:24;19.10;;;6.90;;
6505;SDS011;3286;49.858;8.768;2024-01-30T06:27:50;8.50;;;5.20;;
6505;SDS011;3286;49.858;8.768;2024-01-30T06:30:17;9.13;;;4.90;;
6505;SDS011;3286;49.858;8.768;2024-01-30T06:32:44;7.47;;;4.97;;
6505;SDS011;3286;49.858;8.768;2024-01-30T06:35:10;7.60;;;5.00;;
6505;SDS011;3286;49.858;8.768;2024-01-30T06:37:37;8.97;;;5.10;;
6505;SDS011;3286;49.858;8.768;2024-01-30T06:40:06;10.73;;;4.77;;
6505;SDS011;3286;49.858;8.768;2024-01-30T06:42:33;6.67;;;4.63;;
6505;SDS011;3286;49.858;8.768;2024-01-30T06:45:00;7.63;;;4.80;;
6505;SDS011;3286;49.858;8.768;2024-01-30T06:47:27;9.13;;;5.93;;
6505;SDS011;3286;49.858;8.768;2024-01-30T06:49:53;11.77;;;6.37;;
6505;SDS011;3286;49.858;8.768;2024-01-30T06:52:20;8.57;;;5.60;;
6505;SDS011;3286;49.858;8.768;2024-01-30T06:54:47;12.30;;;5.33;;
6505;SDS011;3286;49.858;8.768;2024-01-30T06:57:15;10.20;;;5.10;;
6505;SDS011;3286;49.858;8.768;2024-01-30T06:59:41;9.60;;;5.87;;
6505;SDS011;3286;49.858;8.768;2024-01-30T07:02:09;11.93;;;5.90;;
6505;SDS011;3286;49.858;8.768;2024-01-30T07:04:36;9.20;;;5.57;;
6505;SDS011;3286;49.858;8.768;2024-01-30T07:07:04;11.67;;;6.33;;
6505;SDS011;3286;49.858;8.768;2024-01-30T07:09:31;7.77;;;5.00;;
6505;SDS011;3286;49.858;8.768;2024-01-30T07:11:59;15.23;;;6.73;;
6505;SDS011;3286;49.858;8.768;2024-01-30T07:14:27;14.33;;;5.97;;
6505;SDS011;3286;49.858;8.768;2024-01-30T07:16:53;10.07;;;5.90;;
6505;SDS011;3286;49.858;8.768;2024-01-30T07:19:20;17.63;;;7.10;;
6505;SDS011;3286;49.858;8.768;2024-01-30T07:21:47;8.00;;;5.90;;
6505;SDS011;3286;49.858;8.768;2024-01-30T07:24:13;11.27;;;6.20;;
6505;SDS011;3286;49.858;8.768;2024-01-30T07:26:40;12.70;;;6.57;;
6505;SDS011;3286;49.858;8.768;2024-01-30T07:29:07;9.50;;;5.60;;
6505;SDS011;3286;49.858;8.768;2024-01-30T07:31:35;8.90;;;5.90;;
6505;SDS011;3286;49.858;8.768;2024-01-30T07:34:01;8.27;;;5.63;;
6505;SDS011;3286;49.858;8.768;2024-01-30T07:36:28;8.33;;;5.37;;
6505;SDS011;3286;49.858;8.768;2024-01-30T07:38:55;11.17;;;6.60;;
6505;SDS011;3286;49.858;8.768;2024-01-30T07:41:22;8.17;;;5.57;;
6505;SDS011;3286;49.858;8.768;2024-01-30T07:43:50;10.33;;;5.93;;
6505;SDS011;3286;49.858;8.768;2024-01-30T07:46:17;10.17;;;6.57;;
6505;SDS011;3286;49.858;8.768;2024-01-30T07:48:45;9.67;;;5.77;;
6505;SDS011;3286;49.858;8.768;2024-01-30T07:51:12;8.50;;;6.13;;
6505;SDS011;3286;49.858;8.768;2024-01-30T07:53:38;11.60;;;6.87;;
6505;SDS011;3286;49.858;8.768;2024-01-30T07:56:05;15.03;;;6.00;;
6505;SDS011;3286;49.858;8.768;2024-01-30T07:58:32;8.57;;;5.90;;
6505;SDS011;3286;49.858;8.768;2024-01-30T08:00:58;10.47;;;6.40;;
6505;SDS011;3286;49.858;8.768;2024-01-30T08:03:25;8.83;;;5.40;;
6505;SDS011;3286;49.858;8.768;2024-01-30T08:05:54;10.73;;;6.70;;
6505;SDS011;3286;49.858;8.768;2024-01-30T08:08:20;11.73;;;7.00;;
6505;SDS011;3286;49.858;8.768;2024-01-30T08:10:47;13.07;;;7.27;;
6505;SDS011;3286;49.858;8.768;2024-01-30T08:13:15;10.97;;;7.30;;
6505;SDS011;3286;49.858;8.768;2024-01-30T08:15:41;18.23;;;9.10;;
6505;SDS011;3286;49.858;8.768;2024-01-30T08:18:08;9.63;;;6.83;;
6505;SDS011;3286;49.858;8.768;2024-01-30T08:20:34;11.73;;;6.97;;
6505;SDS011;3286;49.858;8.768;2024-01-30T08:23:02;10.80;;;6.97;;
6505;SDS011;3286;49.858;8.768;2024-01-30T08:25:29;17.30;;;8.27;;
6505;SDS011;3286;49.858;8.768;2024-01-30T08:27:56;12.50;;;7.00;;
6505;SDS011;3286;49.858;8.768;2024-01-30T08:30:23;23.63;;;9.70;;
6505;SDS011;3286;49.858;8.768;2024-01-30T08:32:49;13.67;;;7.63;;
6505;SDS011;3286;49.858;8.768;2024-01-30T08:35:16;12.77;;;6.77;;
6505;SDS011;3286;49.858;8.768;2024-01-30T08:37:43;10.10;;;6.63;;
6505;SDS011;3286;49.858;8.768;2024-01-30T08:40:11;10.13;;;6.83;;
6505;SDS011;3286;49.858;8.768;2024-01-30T08:42:38;10.33;;;6.17;;
6505;SDS011;3286;49.858;8.768;2024-01-30T08:45:05;16.13;;;7.30;;
6505;SDS011;3286;49.858;8.768;2024-01-30T08:47:32;9.47;;;6.77;;
6505;SDS011;3286;49.858;8.768;2024-01-30T08:49:59;9.97;;;6.37;;
6505;SDS011;3286;49.858;8.768;2024-01-30T08:52:25;11.73;;;6.93;;
6505;SDS011;3286;49.858;8.768;2024-01-30T08:54:52;9.50;;;6.40;;
6505;SDS011;3286;49.858;8.768;2024-01-30T08:57:20;11.90;;;7.17;;
6505;SDS011;3286;49.858;8.768;2024-01-30T08:59:47;10.23;;;6.43;;
6505;SDS011;3286;49.858;8.768;2024-01-30T09:02:14;16.23;;;6.43;;
6505;SDS011;3286;49.858;8.768;2024-01-30T09:04:41;16.33;;;6.47;;
6505;SDS011;3286;49.858;8.768;2024-01-30T09:07:08;11.90;;;7.00;;
6505;SDS011;3286;49.858;8.768;2024-01-30T09:09:37;13.67;;;8.17;;
6505;SDS011;3286;49.858;8.768;2024-01-30T09:12:05;12.13;;;8.00;;
6505;SDS011;3286;49.858;8.768;2024-01-30T09:14:35;11.67;;;7.63;;
6505;SDS011;3286;49.858;8.768;2024-01-30T09:17:02;14.87;;;7.83;;
6505;SDS011;3286;49.858;8.768;2024-01-30T09:19:30;12.40;;;7.47;;
6505;SDS011;3286;49.858;8.768;2024-01-30T09:21:56;11.80;;;7.43;;
6505;SDS011;3286;49.858;8.768;2024-01-30T09:24:23;12.83;;;7.97;;
6505;SDS011;3286;49.858;8.768;2024-01-30T09:26:50;15.77;;;8.97;;
6505;SDS011;3286;49.858;8.768;2024-01-30T09:29:17;16.07;;;10.23;;
6505;SDS011;3286;49.858;8.768;2024-01-30T09:31:45;19.23;;;11.03;;
6505;SDS011;3286;49.858;8.768;2024-01-30T09:34:12;15.03;;;9.17;;
6505;SDS011;3286;49.858;8.768;2024-01-30T09:36:38;13.43;;;8.30;;
6505;SDS011;3286;49.858;8.768;2024-01-30T09:39:05;13.50;;;8.43;;
6505;SDS011;3286;49.858;8.768;2024-01-30T09:41:32;12.40;;;8.47;;
6505;SDS011;3286;49.858;8.768;2024-01-30T09:44:03;13.80;;;8.37;;
6505;SDS011;3286;49.858;8.768;2024-01-30T09:46:32;15.70;;;9.73;;
6505;SDS011;3286;49.858;8.768;2024-01-30T09:49:02;13.03;;;9.23;;
6505;SDS011;3286;49.858;8.768;2024-01-30T09:51:29;14.53;;;9.37;;
6505;SDS011;3286;49.858;8.768;2024-01-30T09:53:56;13.80;;;9.87;;
6505;SDS011;3286;49.858;8.768;2024-01-30T09:56:23;16.73;;;9.83;;
6505;SDS011;3286;49.858;8.768;2024-01-30T09:58:50;15.23;;;9.30;;
6505;SDS011;3286;49.858;8.768;2024-01-30T10:01:17;31.67;;;11.53;;
6505;SDS011;3286;49.858;8.768;2024-01-30T10:03:44;13.07;;;8.53;;
6505;SDS011;3286;49.858;8.768;2024-01-30T10:06:12;12.73;;;7.83;;
6505;SDS011;3286;49.858;8.768;2024-01-30T10:08:41;17.23;;;9.03;;
6505;SDS011;3286;49.858;8.768;2024-01-30T10:11:08;16.33;;;8.37;;
6505;SDS011;3286;49.858;8.768;2024-01-30T10:13:35;11.60;;;7.77;;
6505;SDS011;3286;49.858;8.768;2024-01-30T10:16:02;11.70;;;7.63;;
6505;SDS011;3286;49.858;8.768;2024-01-30T10:18:31;8.80;;;6.80;;
6505;SDS011;3286;49.858;8.768;2024-01-30T10:20:58;16.40;;;8.00;;
6505;SDS011;3286;49.858;8.768;2024-01-30T10:23:26;11.60;;;7.50;;
6505;SDS011;3286;49.858;8.768;2024-01-30T10:25:53;11.60;;;7.53;;
6505;SDS011;3286;49.858;8.768;2024-01-30T10:28:20;11.77;;;7.43;;
6505;SDS011;3286;49.858;8.768;2024-01-30T10:30:56;11.50;;;7.73;;
6505;SDS011;3286;49.858;8.768;2024-01-30T10:33:23;12.23;;;8.37;;
6505;SDS011;3286;49.858;8.768;2024-01-30T10:35:50;14.77;;;8.47;;
6505;SDS011;3286;49.858;8.768;2024-01-30T10:38:17;13.53;;;8.40;;
6505;SDS011;3286;49.858;8.768;2024-01-30T10:40:47;13.87;;;9.00;;
6505;SDS011;3286;49.858;8.768;2024-01-30T10:43:18;13.20;;;8.83;;
6505;SDS011;3286;49.858;8.768;2024-01-30T10:45:48;13.60;;;8.77;;
6505;SDS011;3286;49.858;8.768;2024-01-30T10:48:18;16.93;;;8.70;;
6505;SDS011;3286;49.858;8.768;2024-01-30T10:50:48;17.57;;;9.13;;
6505;SDS011;3286;49.858;8.768;2024-01-30T10:53:16;16.80;;;9.50;;
6505;SDS011;3286;49.858;8.768;2024-01-30T10:55:44;14.67;;;8.80;;
6505;SDS011;3286;49.858;8.768;2024-01-30T10:58:14;24.77;;;10.80;;
6505;SDS011;3286;49.858;8.768;2024-01-30T11:00:41;11.30;;;8.10;;
6505;SDS011;3286;49.858;8.768;2024-01-30T11:03:08;15.93;;;8.37;;
6505;SDS011;3286;49.858;8.768;2024-01-30T11:05:35;20.67;;;11.20;;
6505;SDS011;3286;49.858;8.768;2024-01-30T11:08:10;16.47;;;9.30;;
6505;SDS011;3286;49.858;8.768;2024-01-30T11:10:44;15.97;;;9.17;;
6505;SDS011;3286;49.858;8.768;2024-01-30T11:13:12;13.37;;;7.57;;
6505;SDS011;3286;49.858;8.768;2024-01-30T11:15:40;10.93;;;7.07;;
6505;SDS011;3286;49.858;8.768;2024-01-30T11:18:06;12.87;;;7.83;;
6505;SDS011;3286;49.858;8.768;2024-01-30T11:20:33;11.37;;;8.03;;
6505;SDS011;3286;49.858;8.768;2024-01-30T11:23:01;12.03;;;8.57;;
6505;SDS011;3286;49.858;8.768;2024-01-30T11:25:31;15.77;;;8.57;;
6505;SDS011;3286;49.858;8.768;2024-01-30T11:27:58;14.97;;;9.23;;
6505;SDS011;3286;49.858;8.768;2024-01-30T11:30:26;12.43;;;8.37;;
6505;SDS011;3286;49.858;8.768;2024-01-30T11:32:58;14.83;;;8.27;;
6505;SDS011;3286;49.858;8.768;2024-01-30T11:35:25;13.70;;;8.63;;
6505;SDS011;3286;49.858;8.768;2024-01-30T11:37:52;16.87;;;9.00;;
6505;SDS011;3286;49.858;8.768;2024-01-30T11:40:20;13.37;;;8.77;;
6505;SDS011;3286;49.858;8.768;2024-01-30T11:42:47;12.77;;;9.27;;
6505;SDS011;3286;49.858;8.768;2024-01-30T11:45:15;13.30;;;9.47;;
6505;SDS011;3286;49.858;8.768;2024-01-30T11:47:44;16.57;;;8.90;;
6505;SDS011;3286;49.858;8.768;2024-01-30T11:50:11;12.40;;;8.57;;
6505;SDS011;3286;49.858;8.768;2024-01-30T11:52:38;12.03;;;8.53;;
6505;SDS011;3286;49.858;8.768;2024-01-30T11:55:06;13.17;;;7.60;;
6505;SDS011;3286;49.858;8.768;2024-01-30T11:57:34;16.60;;;8.73;;
6505;SDS011;3286;49.858;8.768;2024-01-30T12:00:02;11.43;;;8.00;;
6505;SDS011;3286;49.858;8.768;2024-01-30T12:02:33;15.17;;;7.97;;
6505;SDS011;3286;49.858;8.768;2024-01-30T12:05:04;12.80;;;8.07;;
6505;SDS011;3286;49.858;8.768;2024-01-30T12:07:31;15.00;;;9.77;;
6505;SDS011;3286;49.858;8.768;2024-01-30T12:09:57;13.53;;;8.60;;
6505;SDS011;3286;49.858;8.768;2024-01-30T12:12:24;12.23;;;7.90;;
6505;SDS011;3286;49.858;8.768;2024-01-30T12:14:52;15.33;;;8.30;;
6505;SDS011;3286;49.858;8.768;2024-01-30T12:17:23;13.57;;;9.03;;
6505;SDS011;3286;49.858;8.768;2024-01-30T12:19:51;12.93;;;8.27;;
6505;SDS011;3286;49.858;8.768;2024-01-30T12:22:21;16.87;;;8.87;;
6505;SDS011;3286;49.858;8.768;2024-01-30T12:24:47;12.83;;;8.70;;
6505;SDS011;3286;49.858;8.768;2024-01-30T12:27:15;14.10;;;9.10;;
6505;SDS011;3286;49.858;8.768;2024-01-30T12:29:41;13.20;;;9.00;;
6505;SDS011;3286;49.858;8.768;2024-01-30T12:32:09;13.47;;;8.63;;
6505;SDS011;3286;49.858;8.768;2024-01-30T12:34:41;12.93;;;9.07;;
6505;SDS011;3286;49.858;8.768;2024-01-30T12:37:08;12.43;;;8.23;;
6505;SDS011;3286;49.858;8.768;2024-01-30T12:39:38;12.20;;;7.80;;
6505;SDS011;3286;49.858;8.768;2024-01-30T12:42:04;12.33;;;7.90;;
6505;SDS011;3286;49.858;8.768;2024-01-30T12:44:31;14.40;;;8.00;;
6505;SDS011;3286;49.858;8.768;2024-01-30T12:46:58;13.17;;;7.90;;
6505;SDS011;3286;49.858;8.768;2024-01-30T12:49:24;12.80;;;7.80;;
6505;SDS011;3286;49.858;8.768;2024-01-30T12:51:51;13.93;;;7.50;;
6505;SDS011;3286;49.858;8.768;2024-01-30T12:54:19;12.10;;;7.90;;
6505;SDS011;3286;49.858;8.768;2024-01-30T12:56:50;10.37;;;7.70;;
6505;SDS011;3286;49.858;8.768;2024-01-30T12:59:17;11.87;;;8.13;;
6505;SDS011;3286;49.858;8.768;2024-01-30T13:01:43;11.90;;;8.00;;
6505;SDS011;3286;49.858;8.768;2024-01-30T13:04:10;12.67;;;8.20;;
6505;SDS011;3286;49.858;8.768;2024-01-30T13:06:37;11.07;;;7.40;;
6505;SDS011;3286;49.858;8.768;2024-01-30T13:09:04;13.50;;;7.83;;
6505;SDS011;3286;49.858;8.768;2024-01-30T13:11:31;11.03;;;7.63;;
6505;SDS011;3286;49.858;8.768;2024-01-30T13:13:59;12.70;;;7.43;;
6505;SDS011;3286;49.858;8.768;2024-01-30T13:16:26;12.37;;;7.40;;
6505;SDS011;3286;49.858;8.768;2024-01-30T13:18:53;13.40;;;6.87;;
6505;SDS011;3286;49.858;8.768;2024-01-30T13:21:20;15.07;;;8.40;;
6505;SDS011;3286;49.858;8.768;2024-01-30T13:23:47;11.03;;;7.03;;
6505;SDS011;3286;49.858;8.768;2024-01-30T13:26:19;9.87;;;7.10;;
6505;SDS011;3286;49.858;8.768;2024-01-30T13:28:45;14.53;;;7.83;;
6505;SDS011;3286;49.858;8.768;2024-01-30T13:31:16;11.60;;;7.47;;
6505;SDS011;3286;49.858;8.768;2024-01-30T13:33:44;12.40;;;7.77;;
6505;SDS011;3286;49.858;8.768;2024-01-30T13:36:11;11.40;;;7.17;;
6505;SDS011;3286;49.858;8.768;2024-01-30T13:38:38;14.10;;;7.80;;
6505;SDS011;3286;49.858;8.768;2024-01-30T13:41:05;9.63;;;7.30;;
6505;SDS011;3286;49.858;8.768;2024-01-30T13:43:31;13.70;;;7.67;;
6505;SDS011;3286;49.858;8.768;2024-01-30T13:45:58;10.13;;;6.87;;
6505;SDS011;3286;49.858;8.768;2024-01-30T13:48:27;11.23;;;7.00;;
6505;SDS011;3286;49.858;8.768;2024-01-30T13:50:54;11.73;;;7.10;;
6505;SDS011;3286;49.858;8.768;2024-01-30T13:53:21;11.63;;;6.53;;
6505;SDS011;3286;49.858;8.768;2024-01-30T13:55:48;11.40;;;7.57;;
6505;SDS011;3286;49.858;8.768;2024-01-30T13:58:14;12.40;;;5.77;;
6505;SDS011;3286;49.858;8.768;2024-01-30T14:00:41;4.00;;;3.50;;
6505;SDS011;3286;49.858;8.768;2024-01-30T14:03:08;4.73;;;3.23;;
6505;SDS011;3286;49.858;8.768;2024-01-30T14:05:36;5.80;;;3.50;;
6505;SDS011;3286;49.858;8.768;2024-01-30T14:08:03;5.33;;;3.70;;
6505;SDS011;3286;49.858;8.768;2024-01-30T14:10:30;5.20;;;3.20;;
6505;SDS011;3286;49.858;8.768;2024-01-30T14:12:57;3.93;;;3.17;;
6505;SDS011;3286;49.858;8.768;2024-01-30T14:15:24;4.60;;;3.13;;
6505;SDS011;3286;49.858;8.768;2024-01-30T14:17:51;5.10;;;3.30;;
6505;SDS011;3286;49.858;8.768;2024-01-30T14:20:18;6.67;;;3.60;;
6505;SDS011;3286;49.858;8.768;2024-01-30T14:22:46;5.83;;;3.87;;
6505;SDS011;3286;49.858;8.768;2024-01-30T14:25:13;9.13;;;4.10;;
6505;SDS011;3286;49.858;8.768;2024-01-30T14:27:40;4.73;;;3.40;;
6505;SDS011;3286;49.858;8.768;2024-01-30T14:30:08;6.73;;;4.07;;
6505;SDS011;3286;49.858;8.768;2024-01-30T14:32:38;6.33;;;3.70;;
6505;SDS011;3286;49.858;8.768;2024-01-30T14:35:07;9.63;;;5.23;;
6505;SDS011;3286;49.858;8.768;2024-01-30T14:37:35;7.03;;;4.17;;
6505;SDS011;3286;49.858;8.768;2024-01-30T14:40:03;5.93;;;3.87;;
6505;SDS011;3286;49.858;8.768;2024-01-30T14:42:32;5.53;;;3.73;;
6505;SDS011;3286;49.858;8.768;2024-01-30T14:44:59;8.53;;;4.77;;
6505;SDS011;3286;49.858;8.768;2024-01-30T14:47:25;7.07;;;5.03;;
6505;SDS011;3286;49.858;8.768;2024-01-30T14:49:52;23.40;;;11.90;;
6505;SDS011;3286;49.858;8.768;2024-01-30T14:52:19;25.33;;;14.03;;
6505;SDS011;3286;49.858;8.768;2024-01-30T14:54:45;14.47;;;6.93;;
6505;SDS011;3286;49.858;8.768;2024-01-30T14:57:13;6.00;;;4.17;;
6505;SDS011;3286;49.858;8.768;2024-01-30T14:59:40;7.87;;;5.47;;
6505;SDS011;3286;49.858;8.768;2024-01-30T15:02:07;27.70;;;13.23;;
6505;SDS011;3286;49.858;8.768;2024-01-30T15:04:33;60.80;;;23.87;;
6505;SDS011;3286;49.858;8.768;2024-01-30T15:06:59;35.27;;;16.47;;